createdAt,value
2018-01-05T00:00:29.299Z,86.11
2018-01-05T00:02:56.706Z,84.76
2018-01-05T00:05:24.102Z,85.34
2018-01-05T00:07:51.480Z,85.03
2018-01-05T00:10:18.910Z,84.68
2018-01-05T00:12:46.314Z,84.11
2018-01-05T00:15:13.683Z,84.48
2018-01-05T00:17:41.067Z,84.50
2018-01-05T00:20:08.464Z,85.06
2018-01-05T00:22:35.842Z,84.14
2018-01-05T00:25:03.248Z,84.81
2018-01-05T00:27:30.617Z,83.74
2018-01-05T00:29:58.015Z,83.51
2018-01-05T00:32:25.411Z,81.76
2018-01-05T00:34:52.803Z,80.93
2018-01-05T00:37:20.192Z,78.45
2018-01-05T00:39:47.591Z,78.32
2018-01-05T00:42:14.975Z,79.34
2018-01-05T00:44:42.399Z,78.85
2018-01-05T00:47:09.788Z,79.87
2018-01-05T00:49:37.271Z,78.78
2018-01-05T00:52:04.659Z,79.11
2018-01-05T00:54:32.044Z,77.24
2018-01-05T00:56:59.426Z,77.52
2018-01-05T00:59:26.813Z,76.97
2018-01-05T01:01:54.203Z,77.85
2018-01-05T01:04:21.591Z,77.12
2018-01-05T01:06:49.017Z,77.47
2018-01-05T01:09:16.417Z,77.07
2018-01-05T01:11:43.814Z,77.44
2018-01-05T01:14:11.205Z,77.48
2018-01-05T01:16:38.594Z,77.40
2018-01-05T01:19:05.982Z,78.49
2018-01-05T01:21:33.369Z,80.23
2018-01-05T01:24:00.775Z,81.41
2018-01-05T01:26:28.171Z,81.70
2018-01-05T01:28:55.558Z,80.67
2018-01-05T01:31:22.947Z,80.18
2018-01-05T01:33:50.338Z,80.14
2018-01-05T01:36:17.743Z,78.80
2018-01-05T01:38:45.132Z,79.47
2018-01-05T01:41:12.558Z,78.77
2018-01-05T01:43:39.994Z,77.99
2018-01-05T01:46:07.382Z,76.99
2018-01-05T01:48:34.777Z,77.23
2018-01-05T01:51:02.559Z,76.60
2018-01-05T01:53:29.946Z,75.85
2018-01-05T01:55:57.339Z,76.22
2018-01-05T01:58:24.722Z,76.17
2018-01-05T02:00:52.115Z,75.53
2018-01-05T02:03:19.507Z,75.99
2018-01-05T02:05:46.888Z,75.30
2018-01-05T02:08:14.301Z,75.55
2018-01-05T02:10:41.669Z,75.48
2018-01-05T02:13:09.057Z,75.77
2018-01-05T02:15:36.439Z,75.75
2018-01-05T02:18:03.829Z,76.20
2018-01-05T02:20:31.214Z,76.35
2018-01-05T02:22:58.624Z,76.49
2018-01-05T02:25:26.021Z,76.73
2018-01-05T02:27:53.417Z,76.64
2018-01-05T02:30:20.802Z,76.66
2018-01-05T02:32:48.202Z,76.23
2018-01-05T02:35:15.579Z,76.02
2018-01-05T02:37:42.989Z,75.92
2018-01-05T02:40:10.466Z,75.97
2018-01-05T02:42:37.858Z,76.37
2018-01-05T02:45:05.251Z,75.50
2018-01-05T02:47:32.642Z,75.15
2018-01-05T02:50:00.046Z,75.98
2018-01-05T02:52:27.427Z,75.19
2018-01-05T02:54:54.811Z,74.89
2018-01-05T02:57:22.199Z,74.78
2018-01-05T02:59:49.598Z,74.86
2018-01-05T03:02:16.979Z,75.11
2018-01-05T03:04:44.378Z,74.51
2018-01-05T03:07:11.758Z,75.29
2018-01-05T03:09:39.150Z,75.00
2018-01-05T03:12:06.533Z,74.86
2018-01-05T03:14:33.957Z,74.60
2018-01-05T03:17:01.330Z,74.68
2018-01-05T03:19:28.733Z,74.95
2018-01-05T03:21:56.118Z,74.60
2018-01-05T03:24:23.563Z,74.82
2018-01-05T03:26:50.898Z,74.26
2018-01-05T03:29:18.287Z,74.67
2018-01-05T03:31:45.677Z,74.71
2018-01-05T03:34:13.077Z,74.12
2018-01-05T03:36:40.458Z,74.74
2018-01-05T03:39:07.871Z,74.05
2018-01-05T03:41:35.229Z,74.60
2018-01-05T03:44:02.622Z,74.14
2018-01-05T03:46:30.005Z,73.99
2018-01-05T03:48:57.412Z,73.77
2018-01-05T03:51:24.788Z,74.21
2018-01-05T03:53:52.159Z,74.00
2018-01-05T03:56:19.555Z,74.57
2018-01-05T03:58:47.017Z,74.33
2018-01-05T04:01:14.415Z,74.41
2018-01-05T04:03:41.800Z,74.31
2018-01-05T04:06:09.199Z,74.58
2018-01-05T04:08:36.655Z,74.88
2018-01-05T04:11:04.036Z,74.95
2018-01-05T04:13:31.420Z,74.30
2018-01-05T04:15:58.901Z,74.79
2018-01-05T04:18:26.335Z,74.94
2018-01-05T04:20:53.687Z,74.47
2018-01-05T04:23:21.074Z,74.69
2018-01-05T04:25:48.469Z,75.17
2018-01-05T04:28:15.867Z,75.35
2018-01-05T04:30:43.250Z,75.21
2018-01-05T04:33:11.248Z,75.04
2018-01-05T04:35:38.655Z,75.15
2018-01-05T04:38:06.055Z,75.14
2018-01-05T04:40:33.438Z,75.33
2018-01-05T04:43:00.831Z,74.54
2018-01-05T04:45:28.246Z,74.79
2018-01-05T04:47:55.739Z,75.14
2018-01-05T04:50:23.118Z,75.06
2018-01-05T04:52:50.511Z,74.78
2018-01-05T04:55:17.892Z,75.03
2018-01-05T04:57:45.363Z,75.32
2018-01-05T05:00:12.855Z,75.37
2018-01-05T05:02:40.247Z,75.17
2018-01-05T05:05:07.631Z,75.21
2018-01-05T05:07:35.019Z,74.78
2018-01-05T05:10:02.401Z,75.05
2018-01-05T05:12:29.798Z,74.84
2018-01-05T05:14:57.178Z,74.65
2018-01-05T05:17:24.574Z,74.70
2018-01-05T05:19:51.954Z,74.64
2018-01-05T05:22:19.355Z,74.34
2018-01-05T05:24:46.742Z,74.72
2018-01-05T05:27:14.122Z,74.59
2018-01-05T05:29:41.615Z,74.12
2018-01-05T05:32:09.008Z,74.71
2018-01-05T05:34:36.424Z,74.33
2018-01-05T05:37:03.810Z,74.40
2018-01-05T05:39:31.202Z,75.03
2018-01-05T05:41:58.687Z,75.03
2018-01-05T05:44:27.073Z,75.43
2018-01-05T05:46:54.466Z,75.46
2018-01-05T05:49:21.854Z,75.47
2018-01-05T05:51:49.373Z,75.19
2018-01-05T05:54:16.790Z,75.40
2018-01-05T05:56:44.175Z,75.79
2018-01-05T05:59:11.583Z,75.99
2018-01-05T06:01:38.965Z,75.76
2018-01-05T06:04:06.357Z,75.72
2018-01-05T06:06:33.734Z,75.55
2018-01-05T06:09:01.140Z,75.21
2018-01-05T06:11:28.518Z,75.07
2018-01-05T06:13:55.903Z,74.88
2018-01-05T06:16:23.286Z,74.72
2018-01-05T06:18:50.675Z,74.83
2018-01-05T06:21:18.062Z,75.03
2018-01-05T06:23:45.449Z,74.44
2018-01-05T06:26:12.834Z,74.32
2018-01-05T06:28:40.223Z,74.31
2018-01-05T06:31:07.720Z,73.74
2018-01-05T06:33:35.098Z,73.84
2018-01-05T06:36:02.489Z,73.77
2018-01-05T06:38:29.871Z,73.67
2018-01-05T06:40:57.263Z,73.10
2018-01-05T06:43:24.663Z,73.57
2018-01-05T06:45:52.117Z,73.83
2018-01-05T06:48:19.619Z,74.07
2018-01-05T06:50:47.002Z,73.82
2018-01-05T06:53:14.383Z,73.72
2018-01-05T06:55:41.771Z,73.62
2018-01-05T06:58:09.149Z,73.72
2018-01-05T07:00:36.574Z,73.80
2018-01-05T07:03:04.188Z,73.40
2018-01-05T07:05:31.587Z,73.87
2018-01-05T07:07:59.056Z,73.89
2018-01-05T07:10:27.235Z,73.98
2018-01-05T07:12:54.623Z,73.56
2018-01-05T07:15:22.007Z,73.66
2018-01-05T07:17:49.494Z,73.50
2018-01-05T07:20:16.866Z,73.49
2018-01-05T07:22:44.269Z,74.13
2018-01-05T07:25:11.755Z,74.13
2018-01-05T07:27:39.142Z,74.51
2018-01-05T07:30:06.528Z,74.37
2018-01-05T07:32:33.915Z,74.52
2018-01-05T07:35:01.294Z,75.13
2018-01-05T07:37:28.755Z,75.33
2018-01-05T07:39:56.186Z,76.06
2018-01-05T07:42:23.584Z,76.38
2018-01-05T07:44:50.958Z,76.07
2018-01-05T07:47:18.351Z,76.44
2018-01-05T07:49:45.740Z,78.56
2018-01-05T07:52:13.134Z,79.58
2018-01-05T07:54:40.574Z,79.33
2018-01-05T07:57:08.003Z,79.60
2018-01-05T07:59:35.387Z,79.16
2018-01-05T08:02:02.767Z,78.62
2018-01-05T08:04:30.163Z,78.50
2018-01-05T08:06:57.542Z,78.27
2018-01-05T08:09:24.940Z,78.32
2018-01-05T08:11:53.535Z,77.98
2018-01-05T08:14:20.915Z,77.70
2018-01-05T08:16:48.328Z,77.55
2018-01-05T08:19:15.713Z,77.36
2018-01-05T08:21:43.095Z,77.22
2018-01-05T08:24:10.486Z,77.22
2018-01-05T08:26:37.867Z,77.50
2018-01-05T08:29:05.251Z,76.84
2018-01-05T08:31:32.642Z,76.20
2018-01-05T08:34:00.043Z,76.19
2018-01-05T08:36:27.419Z,76.41
2018-01-05T08:38:54.908Z,76.54
2018-01-05T08:41:22.289Z,76.50
2018-01-05T08:43:49.683Z,76.59
2018-01-05T08:46:17.072Z,75.77
2018-01-05T08:48:44.457Z,75.83
2018-01-05T08:51:11.839Z,75.22
2018-01-05T08:53:39.234Z,75.77
2018-01-05T08:56:06.619Z,75.93
2018-01-05T08:58:34.047Z,75.85
2018-01-05T09:01:01.467Z,76.13
2018-01-05T09:03:28.851Z,75.88
2018-01-05T09:05:56.248Z,75.50
2018-01-05T09:08:23.631Z,75.00
2018-01-05T09:10:51.027Z,75.52
2018-01-05T09:13:18.704Z,75.26
2018-01-05T09:15:46.119Z,74.84
2018-01-05T09:18:13.512Z,74.37
2018-01-05T09:20:40.898Z,74.55
2018-01-05T09:23:08.318Z,74.54
2018-01-05T09:25:35.706Z,73.96
2018-01-05T09:28:03.079Z,74.02
2018-01-05T09:30:30.572Z,73.67
2018-01-05T09:32:57.992Z,73.64
2018-01-05T09:35:25.396Z,73.90
2018-01-05T09:37:52.843Z,74.13
2018-01-05T09:40:20.231Z,73.25
2018-01-05T09:42:47.634Z,73.19
2018-01-05T09:45:15.098Z,72.31
2018-01-05T09:47:42.558Z,72.02
2018-01-05T09:50:10.019Z,72.57
2018-01-05T09:52:37.406Z,72.33
2018-01-05T09:55:04.779Z,72.31
2018-01-05T09:57:32.166Z,72.72
2018-01-05T09:59:59.576Z,72.60
2018-01-05T10:02:26.965Z,72.41
2018-01-05T10:04:54.455Z,72.96
2018-01-05T10:07:21.847Z,72.91
2018-01-05T10:09:49.223Z,72.65
2018-01-05T10:12:16.614Z,73.01
2018-01-05T10:14:44.001Z,72.67
2018-01-05T10:17:11.391Z,72.97
2018-01-05T10:19:38.767Z,72.84
2018-01-05T10:22:06.173Z,72.78
2018-01-05T10:24:33.552Z,73.02
2018-01-05T10:27:01.048Z,73.09
2018-01-05T10:29:28.435Z,73.13
2018-01-05T10:31:55.827Z,72.79
2018-01-05T10:34:23.310Z,73.24
2018-01-05T10:36:50.793Z,73.75
2018-01-05T10:39:18.193Z,73.74
2018-01-05T10:41:45.684Z,74.39
2018-01-05T10:44:13.074Z,74.54
2018-01-05T10:46:40.471Z,74.77
2018-01-05T10:49:07.857Z,74.80
2018-01-05T10:51:35.248Z,75.82
2018-01-05T10:54:02.638Z,76.22
2018-01-05T10:56:30.053Z,76.46
2018-01-05T10:58:57.466Z,75.90
2018-01-05T11:01:24.858Z,75.58
2018-01-05T11:03:52.269Z,75.00
2018-01-05T11:06:19.664Z,75.70
2018-01-05T11:08:47.091Z,75.80
2018-01-05T11:11:14.470Z,75.67
2018-01-05T11:13:41.851Z,75.57
2018-01-05T11:16:09.238Z,75.57
2018-01-05T11:18:36.626Z,75.32
2018-01-05T11:21:04.007Z,75.45
2018-01-05T11:23:31.404Z,76.06
2018-01-05T11:25:58.788Z,76.97
2018-01-05T11:28:26.172Z,76.97
2018-01-05T11:30:53.561Z,76.50
2018-01-05T11:33:20.959Z,76.18
2018-01-05T11:35:48.347Z,75.58
2018-01-05T11:38:15.745Z,75.18
2018-01-05T11:40:43.126Z,75.51
2018-01-05T11:43:10.522Z,75.03
2018-01-05T11:45:37.919Z,75.20
2018-01-05T11:48:05.333Z,75.29
2018-01-05T11:50:32.734Z,75.53
2018-01-05T11:53:00.094Z,76.10
2018-01-05T11:55:27.505Z,76.23
2018-01-05T11:57:54.868Z,75.94
2018-01-05T12:00:22.257Z,76.28
2018-01-05T12:02:49.634Z,75.24
2018-01-05T12:05:17.035Z,74.93
2018-01-05T12:07:44.541Z,75.10
2018-01-05T12:10:12.397Z,74.87
2018-01-05T12:12:39.772Z,74.83
2018-01-05T12:15:07.167Z,74.83
2018-01-05T12:17:34.558Z,74.77
2018-01-05T12:20:02.000Z,75.46
2018-01-05T12:22:29.459Z,75.02
2018-01-05T12:24:56.851Z,74.72
2018-01-05T12:27:24.287Z,74.61
2018-01-05T12:29:51.691Z,73.89
2018-01-05T12:32:19.150Z,74.48
2018-01-05T12:34:46.530Z,73.62
2018-01-05T12:37:13.923Z,73.98
2018-01-05T12:39:41.326Z,73.77
2018-01-05T12:42:08.713Z,73.47
2018-01-05T12:44:36.091Z,73.77
2018-01-05T12:47:03.490Z,73.26
2018-01-05T12:49:30.870Z,73.09
2018-01-05T12:51:58.258Z,73.04
2018-01-05T12:54:25.646Z,73.13
2018-01-05T12:56:53.055Z,72.63
2018-01-05T12:59:20.444Z,72.06
2018-01-05T13:01:47.829Z,72.28
2018-01-05T13:04:15.206Z,72.23
2018-01-05T13:06:42.599Z,71.60
2018-01-05T13:09:09.989Z,71.31
2018-01-05T13:11:37.374Z,71.04
2018-01-05T13:14:04.778Z,70.67
2018-01-05T13:16:32.274Z,70.83
2018-01-05T13:18:59.714Z,70.52
2018-01-05T13:21:27.107Z,71.02
2018-01-05T13:23:54.503Z,70.91
2018-01-05T13:26:21.896Z,71.82
2018-01-05T13:28:49.283Z,71.75
2018-01-05T13:31:16.712Z,71.81
2018-01-05T13:33:44.090Z,71.32
2018-01-05T13:36:11.529Z,71.62
2018-01-05T13:38:38.902Z,72.42
2018-01-05T13:41:06.286Z,72.96
2018-01-05T13:43:33.678Z,73.09
2018-01-05T13:46:01.088Z,73.15
2018-01-05T13:48:28.476Z,73.38
2018-01-05T13:50:55.870Z,74.16
2018-01-05T13:53:23.267Z,73.70
2018-01-05T13:55:50.672Z,73.28
2018-01-05T13:58:18.063Z,73.80
2018-01-05T14:00:45.455Z,74.01
2018-01-05T14:03:12.834Z,73.77
2018-01-05T14:05:40.219Z,73.62
2018-01-05T14:08:07.612Z,73.36
2018-01-05T14:10:34.989Z,73.39
2018-01-05T14:13:02.392Z,73.24
2018-01-05T14:15:30.219Z,73.47
2018-01-05T14:17:58.574Z,73.20
2018-01-05T14:20:26.006Z,73.07
2018-01-05T14:22:53.336Z,72.79
2018-01-05T14:25:20.715Z,72.69
2018-01-05T14:27:48.106Z,72.37
2018-01-05T14:30:15.493Z,72.63
2018-01-05T14:32:43.118Z,72.83
2018-01-05T14:35:10.566Z,73.04
2018-01-05T14:37:38.975Z,73.27
2018-01-05T14:40:06.351Z,73.20
2018-01-05T14:42:33.771Z,74.32
2018-01-05T14:45:01.159Z,74.20
2018-01-05T14:47:28.538Z,74.14
2018-01-05T14:49:55.926Z,75.40
2018-01-05T14:52:23.314Z,75.27
2018-01-05T14:54:50.712Z,76.04
2018-01-05T14:57:18.204Z,75.55
2018-01-05T14:59:45.605Z,75.68
2018-01-05T15:02:13.038Z,75.72
2018-01-05T15:04:40.438Z,76.21
2018-01-05T15:07:07.824Z,75.96
2018-01-05T15:09:35.225Z,76.51
2018-01-05T15:12:02.597Z,76.41
2018-01-05T15:14:30.113Z,76.03
2018-01-05T15:16:57.503Z,75.84
2018-01-05T15:19:24.896Z,75.73
2018-01-05T15:21:52.352Z,76.36
2018-01-05T15:24:19.836Z,76.41
2018-01-05T15:26:47.227Z,76.01
2018-01-05T15:29:14.622Z,76.11
2018-01-05T15:31:41.998Z,76.37
2018-01-05T15:34:09.393Z,76.15
2018-01-05T15:36:36.786Z,76.47
2018-01-05T15:39:04.180Z,77.03
2018-01-05T15:41:31.581Z,76.45
2018-01-05T15:43:59.061Z,75.96
2018-01-05T15:46:26.468Z,76.11
2018-01-05T15:48:53.838Z,76.34
2018-01-05T15:51:21.319Z,75.84
2018-01-05T15:53:48.711Z,75.45
2018-01-05T15:56:16.217Z,76.05
2018-01-05T15:58:43.598Z,76.21
2018-01-05T16:01:11.034Z,76.08
2018-01-05T16:03:38.414Z,76.10
2018-01-05T16:06:05.825Z,76.37
2018-01-05T16:08:33.207Z,77.10
2018-01-05T16:11:00.624Z,76.71
2018-01-05T16:13:28.122Z,77.00
2018-01-05T16:15:55.523Z,76.58
2018-01-05T16:18:22.907Z,76.66
2018-01-05T16:20:50.310Z,77.51
2018-01-05T16:23:17.699Z,78.00
2018-01-05T16:25:45.078Z,78.00
2018-01-05T16:28:12.491Z,78.31
2018-01-05T16:30:39.903Z,78.11
2018-01-05T16:33:07.370Z,78.52
2018-01-05T16:35:34.750Z,79.06
2018-01-05T16:38:02.150Z,78.97
2018-01-05T16:40:29.538Z,78.84
2018-01-05T16:42:56.934Z,79.61
2018-01-05T16:45:24.327Z,79.03
2018-01-05T16:47:51.773Z,78.73
2018-01-05T16:50:19.150Z,78.98
2018-01-05T16:52:46.613Z,78.65
2018-01-05T16:55:13.996Z,77.63
2018-01-05T16:57:41.402Z,78.01
2018-01-05T17:00:08.774Z,78.51
2018-01-05T17:02:36.159Z,78.22
2018-01-05T17:05:03.538Z,78.21
2018-01-05T17:07:30.938Z,77.74
2018-01-05T17:09:58.334Z,77.46
2018-01-05T17:12:25.719Z,77.10
2018-01-05T17:14:53.110Z,77.80
2018-01-05T17:17:20.498Z,77.56
2018-01-05T17:19:47.899Z,77.40
2018-01-05T17:22:15.271Z,77.63
2018-01-05T17:24:42.682Z,76.99
2018-01-05T17:27:10.122Z,76.85
2018-01-05T17:29:37.528Z,76.88
2018-01-05T17:32:04.992Z,76.61
2018-01-05T17:34:32.447Z,76.13
2018-01-05T17:36:59.833Z,77.34
2018-01-05T17:39:27.253Z,77.54
2018-01-05T17:41:54.719Z,77.72
2018-01-05T17:44:22.110Z,77.14
2018-01-05T17:46:49.496Z,77.05
2018-01-05T17:49:16.886Z,77.21
2018-01-05T17:51:44.282Z,77.37
2018-01-05T17:54:11.706Z,77.37
2018-01-05T17:56:39.085Z,77.20
2018-01-05T17:59:06.476Z,76.84
2018-01-05T18:01:33.859Z,77.66
2018-01-05T18:04:01.256Z,77.48
2018-01-05T18:06:28.642Z,78.16
2018-01-05T18:08:56.047Z,77.95
2018-01-05T18:11:23.535Z,78.37
2018-01-05T18:13:50.924Z,78.37
2018-01-05T18:16:18.323Z,78.36
2018-01-05T18:18:45.711Z,77.50
2018-01-05T18:21:13.134Z,76.89
2018-01-05T18:23:40.531Z,76.89
2018-01-05T18:26:07.922Z,77.09
2018-01-05T18:28:35.314Z,77.12
2018-01-05T18:31:02.853Z,77.19
2018-01-05T18:33:30.287Z,77.52
2018-01-05T18:35:57.698Z,77.74
2018-01-05T18:38:25.098Z,78.48
2018-01-05T18:40:52.501Z,78.70
2018-01-05T18:43:19.906Z,78.11
2018-01-05T18:45:47.299Z,78.45
2018-01-05T18:48:14.686Z,77.87
2018-01-05T18:50:42.180Z,77.99
2018-01-05T18:53:09.590Z,77.61
2018-01-05T18:55:36.999Z,78.07
2018-01-05T18:58:04.402Z,77.79
2018-01-05T19:00:31.794Z,78.20
2018-01-05T19:02:59.252Z,78.36
2018-01-05T19:05:26.639Z,79.21
2018-01-05T19:07:54.030Z,80.18
2018-01-05T19:10:21.435Z,81.01
2018-01-05T19:12:48.881Z,81.25
2018-01-05T19:15:16.290Z,80.91
2018-01-05T19:17:43.811Z,81.71
2018-01-05T19:20:11.222Z,81.68
2018-01-05T19:22:38.614Z,81.83
2018-01-05T19:25:06.019Z,82.39
2018-01-05T19:27:33.486Z,81.67
2018-01-05T19:30:00.893Z,81.93
2018-01-05T19:32:28.292Z,81.31
2018-01-05T19:34:55.846Z,80.84
2018-01-05T19:37:23.248Z,80.57
2018-01-05T19:39:50.635Z,80.48
2018-01-05T19:42:18.067Z,80.59
2018-01-05T19:44:45.467Z,80.31
2018-01-05T19:47:12.951Z,80.22
2018-01-05T19:49:40.342Z,79.92
2018-01-05T19:52:07.727Z,79.83
2018-01-05T19:54:35.223Z,80.25
2018-01-05T19:57:02.639Z,80.28
2018-01-05T19:59:30.130Z,80.40
2018-01-05T20:01:57.527Z,80.63
2018-01-05T20:04:24.923Z,80.48
2018-01-05T20:06:52.330Z,80.14
2018-01-05T20:09:19.738Z,80.66
2018-01-05T20:11:47.159Z,80.61
2018-01-05T20:14:14.550Z,80.51
2018-01-05T20:16:41.946Z,81.53
2018-01-05T20:19:09.363Z,81.79
2018-01-05T20:21:36.780Z,82.04
2018-01-05T20:24:04.175Z,81.96
2018-01-05T20:26:31.578Z,81.57
2018-01-05T20:28:58.983Z,81.57
2018-01-05T20:31:26.395Z,81.86
2018-01-05T20:33:53.950Z,82.09
2018-01-05T20:36:21.334Z,82.30
2018-01-05T20:38:48.719Z,81.99
2018-01-05T20:41:16.143Z,81.99
2018-01-05T20:43:43.547Z,81.85
2018-01-05T20:46:10.959Z,81.63
2018-01-05T20:48:38.351Z,81.11
2018-01-05T20:51:05.877Z,80.62
2018-01-05T20:53:33.235Z,80.36
2018-01-05T20:56:00.657Z,80.27
2018-01-05T20:58:28.038Z,80.46
2018-01-05T21:00:55.453Z,80.22
2018-01-05T21:03:22.941Z,79.64
2018-01-05T21:05:50.327Z,79.51
2018-01-05T21:08:17.726Z,79.16
2018-01-05T21:10:45.203Z,79.85
2018-01-05T21:13:12.593Z,80.58
2018-01-05T21:15:40.003Z,80.89
2018-01-05T21:18:07.398Z,81.11
2018-01-05T21:20:34.829Z,81.59
2018-01-05T21:23:02.195Z,81.90
2018-01-05T21:25:29.611Z,81.76
2018-01-05T21:27:57.086Z,82.37
2018-01-05T21:30:24.541Z,82.72
2018-01-05T21:32:52.034Z,82.84
2018-01-05T21:35:19.374Z,82.92
2018-01-05T21:37:46.778Z,83.15
2018-01-05T21:40:14.166Z,83.23
2018-01-05T21:42:41.564Z,83.07
2018-01-05T21:45:08.967Z,83.67
2018-01-05T21:47:36.371Z,83.74
2018-01-05T21:50:03.775Z,83.67
2018-01-05T21:52:31.173Z,83.95
2018-01-05T21:54:58.559Z,84.21
2018-01-05T21:57:25.962Z,83.54
2018-01-05T21:59:53.338Z,83.28
2018-01-05T22:02:20.742Z,82.91
2018-01-05T22:04:48.118Z,82.82
2018-01-05T22:07:15.506Z,82.85
2018-01-05T22:09:42.906Z,82.87
2018-01-05T22:12:10.290Z,82.92
2018-01-05T22:14:37.672Z,82.86
2018-01-05T22:17:05.051Z,82.76
2018-01-05T22:19:32.442Z,83.03
2018-01-05T22:21:59.890Z,82.76
2018-01-05T22:24:27.351Z,82.71
2018-01-05T22:26:54.745Z,82.74
2018-01-05T22:29:22.165Z,83.12
2018-01-05T22:31:49.550Z,83.01
2018-01-05T22:34:16.934Z,82.69
2018-01-05T22:36:44.436Z,83.59
2018-01-05T22:39:11.822Z,83.04
2018-01-05T22:41:39.203Z,83.53
2018-01-05T22:44:06.601Z,82.87
2018-01-05T22:46:33.994Z,83.45
2018-01-05T22:49:01.394Z,83.85
2018-01-05T22:51:28.774Z,83.69
2018-01-05T22:53:56.314Z,84.00
2018-01-05T22:56:23.731Z,84.08
2018-01-05T22:58:51.139Z,83.99
2018-01-05T23:01:18.527Z,84.22
2018-01-05T23:03:45.941Z,84.66
2018-01-05T23:06:13.311Z,84.55
2018-01-05T23:08:40.757Z,84.83
2018-01-05T23:11:08.198Z,84.38
2018-01-05T23:13:35.658Z,84.55
2018-01-05T23:16:03.053Z,84.64
2018-01-05T23:18:30.432Z,84.51
2018-01-05T23:20:57.831Z,84.57
2018-01-05T23:23:25.224Z,84.67
2018-01-05T23:25:52.620Z,84.57
2018-01-05T23:28:19.998Z,84.38
2018-01-05T23:30:47.396Z,83.79
2018-01-05T23:33:14.798Z,83.03
2018-01-05T23:35:42.216Z,83.26
2018-01-05T23:38:09.591Z,83.37
2018-01-05T23:40:37.007Z,83.19
2018-01-05T23:43:04.384Z,83.61
2018-01-05T23:45:31.774Z,84.26
2018-01-05T23:47:59.154Z,84.84
2018-01-05T23:50:26.564Z,84.17
2018-01-05T23:52:53.955Z,83.78
2018-01-05T23:55:21.373Z,83.24
2018-01-05T23:57:48.744Z,83.52
